Stevinson, California
Current Conditions -  °F | °C
As of 11:45 AM on Wednesday 26 Nov 2014 (Local Time) from KMER Reporting Station
Haze Haze  
Wind Chill: 18°   Ceiling: Unl
Heat Index: 18°   Visibility: 4mi
Dew Point: 12°   Wind: 0mph
Humidity: 68%   Direction: NA
Pressure: 30.3"   Gusts: NA
Location:  37.33°N, 120.85°W
Report Text: KMER 261945Z 00000KT 4SM HZ SKC 18/12 A3030
Loading
Personal Weather Stations






























Interactive Weather Map New forecast layout! Learn more

10-Day Weather Forecast

Advertisements
Track Severe Weather on mobile